KFDK/FDK METAR and TAF weather

Enter ICAO airport designator
Station Type Date Time Source
KFDK METAR 2020/04/05 12:47 UTC NOAA

KFDK 051247Z 00000KT 10SM FEW200 11/08 A3009


Station Type Date Time Source
KFDK Decoded METAR 2020/04/05 12:47 UTC NOAA

Frederick, Frederick Municipal Airport, MD, United States (KFDK) 39-25-03N 077-22-28W
Apr 05, 2020 - 08:47 AM EDT / 2020.04.05 1247 UTC
Wind: Calm:0
Visibility: 10 mile(s):0
Sky conditions: mostly clear
Temperature: 51 F (11 C)
Dew Point: 46 F (8 C)
Relative Humidity: 81%
Pressure (altimeter): 30.09 in. Hg (1018 hPa)
ob: KFDK 051247Z 00000KT 10SM FEW200 11/08 A3009
cycle: 13

Station Type Date Time Source
KFDK TAF UTC NOAA

Error!

Example: see airport list